YXLA weather

Laidley Hospital Helipad
Laidley, Queensland, Australia

Public forecast

Using degrees Celsius for public forecast. Weather courtesy of forecast.io.

Closest aviation weather report (METAR) to Laidley Hospital Helipad

Closest report is RAAF Base Amberley, 16.6 nm (30.8 km) E. Retrieved 2020/05/28 22:00 UTC (38 minutes ago):

YAMB 282200Z 00000KT 9999 SCT040 15/13 Q1022 FM2300 17008KT 9999 SCT040

Closest aviation forecast (TAF) to Laidley Hospital Helipad

Closest forecast is RAAF Base Amberley, 16.6 nm (30.8 km) E. Retrieved 2020/05/28 18:00 UTC (5 hours ago):

TAF YAMB 281627Z 2818/2912 VRB01KT 9999 MIFG FEW030 FM282100 18004KT 9999 NSW SCT030 FM290200 15010KT 9999 FEW035 FM291000 VRB03KT 9999 FEW030